Terminal Aerodrome Forecast
Issued by NWS

Home | Current Version | Previous Version | Text Only | Print | Product List | Glossary Off
Versions: 1 2 3 4 5 6 7 8 9 10 11 12 13 14 15 16 17 18 19 20 21 22

000
FTUS43 KLOT 252339
TAFGYY
TAF
KGYY 252339Z 2600/2624 21010KT P6SM VCSH BKN050
     FM260330 27013G19KT 6SM -SHRA SCT025 OVC080
     FM260600 27012G18KT P6SM BKN080 BKN120
     FM261500 27017G30KT P6SM SCT050=

USA.gov is the U.S. government's official web portal to all federal, state and local government web resources and services.